createdAt,value
2023-07-03T00:00:47.953Z,19.41
2023-07-03T00:03:17.347Z,19.75
2023-07-03T00:05:44.329Z,19.32
2023-07-03T00:08:14.450Z,18.84
2023-07-03T00:10:40.801Z,18.83
2023-07-03T00:13:07.163Z,18.45
2023-07-03T00:15:33.508Z,18.30
2023-07-03T00:17:59.856Z,18.19
2023-07-03T00:20:28.795Z,17.90
2023-07-03T00:22:55.728Z,18.04
2023-07-03T00:25:22.433Z,18.03
2023-07-03T00:27:48.989Z,17.85
2023-07-03T00:30:15.632Z,17.72
2023-07-03T00:32:42.179Z,17.73
2023-07-03T00:35:08.695Z,17.57
2023-07-03T00:37:35.037Z,17.77
2023-07-03T00:40:01.382Z,18.13
2023-07-03T00:42:28.212Z,17.84
2023-07-03T00:44:54.553Z,17.63
2023-07-03T00:47:20.944Z,17.35
2023-07-03T00:49:47.345Z,17.30
2023-07-03T00:52:13.766Z,17.23
2023-07-03T00:54:40.225Z,17.41
2023-07-03T00:57:06.960Z,17.47
2023-07-03T00:59:33.314Z,17.30
2023-07-03T01:02:17.825Z,17.28
2023-07-03T01:04:44.182Z,17.26
2023-07-03T01:07:13.136Z,17.17
2023-07-03T01:09:46.299Z,17.28
2023-07-03T01:12:12.670Z,17.54
2023-07-03T01:14:39.402Z,17.59
2023-07-03T01:17:10.932Z,17.68
2023-07-03T01:19:37.301Z,17.63
2023-07-03T01:22:06.727Z,17.40
2023-07-03T01:24:34.113Z,17.28
2023-07-03T01:27:01.491Z,17.72
2023-07-03T01:29:27.845Z,17.62
2023-07-03T01:31:54.617Z,17.76
2023-07-03T01:34:21.048Z,17.81
2023-07-03T01:36:47.395Z,18.09
2023-07-03T01:39:13.741Z,17.84
2023-07-03T01:41:40.085Z,17.54
2023-07-03T01:44:06.411Z,17.49
2023-07-03T01:46:32.861Z,17.36
2023-07-03T01:48:59.386Z,17.35
2023-07-03T01:51:38.254Z,17.50
2023-07-03T01:54:07.733Z,17.62
2023-07-03T01:56:35.376Z,17.69
2023-07-03T01:59:11.603Z,17.78
2023-07-03T02:01:48.336Z,17.85
2023-07-03T02:04:19.146Z,17.93
2023-07-03T02:06:45.623Z,18.22
2023-07-03T02:09:11.996Z,18.68
2023-07-03T02:11:38.524Z,19.08
2023-07-03T02:14:06.203Z,18.75
2023-07-03T02:16:32.589Z,18.39
2023-07-03T02:18:59.864Z,18.20
2023-07-03T02:21:27.423Z,18.20
2023-07-03T02:23:53.773Z,18.27
2023-07-03T02:26:20.104Z,17.88
2023-07-03T02:28:46.611Z,17.55
2023-07-03T02:31:13.013Z,17.68
2023-07-03T02:33:39.494Z,17.65
2023-07-03T02:36:06.015Z,17.72
2023-07-03T02:38:32.427Z,17.59
2023-07-03T02:40:58.777Z,17.25
2023-07-03T02:43:25.214Z,17.03
2023-07-03T02:45:51.818Z,17.31
2023-07-03T02:48:18.324Z,17.77
2023-07-03T02:50:44.676Z,18.23
2023-07-03T02:53:11.036Z,18.60
2023-07-03T02:55:37.354Z,18.96
2023-07-03T02:58:03.683Z,19.25
2023-07-03T03:00:30.077Z,19.18
2023-07-03T03:02:56.480Z,19.20
2023-07-03T03:05:22.893Z,19.41
2023-07-03T03:07:49.237Z,19.63
2023-07-03T03:10:15.615Z,19.68
2023-07-03T03:12:42.085Z,19.85
2023-07-03T03:15:08.638Z,19.67
2023-07-03T03:17:35.013Z,19.49
2023-07-03T03:20:01.620Z,19.45
2023-07-03T03:22:27.983Z,19.22
2023-07-03T03:24:54.331Z,19.12
2023-07-03T03:27:20.716Z,19.07
2023-07-03T03:29:48.847Z,19.49
2023-07-03T03:32:15.215Z,19.78
2023-07-03T03:34:41.574Z,20.00
2023-07-03T03:37:07.910Z,20.06
2023-07-03T03:39:34.262Z,20.12
2023-07-03T03:42:00.621Z,20.19
2023-07-03T03:44:26.954Z,20.24
2023-07-03T03:46:54.049Z,20.19
2023-07-03T03:49:20.565Z,20.16
2023-07-03T03:51:46.939Z,20.09
2023-07-03T03:54:13.290Z,20.09
2023-07-03T03:56:39.624Z,20.29
2023-07-03T03:59:05.958Z,20.28
2023-07-03T04:01:34.248Z,20.24
2023-07-03T04:04:00.819Z,20.22
2023-07-03T04:06:27.334Z,20.15
2023-07-03T04:08:53.685Z,20.03
2023-07-03T04:11:21.183Z,19.58
2023-07-03T04:13:47.600Z,19.46
2023-07-03T04:16:14.012Z,19.59
2023-07-03T04:18:41.672Z,19.72
2023-07-03T04:21:08.008Z,19.90
2023-07-03T04:23:34.333Z,20.09
2023-07-03T04:26:02.010Z,20.07
2023-07-03T04:28:28.393Z,19.93
2023-07-03T04:30:54.722Z,19.78
2023-07-03T04:33:21.081Z,19.75
2023-07-03T04:35:47.867Z,19.88
2023-07-03T04:38:18.522Z,19.95
2023-07-03T04:40:45.781Z,19.93
2023-07-03T04:43:12.329Z,20.02
2023-07-03T04:45:41.879Z,20.18
2023-07-03T04:48:08.337Z,20.32
2023-07-03T04:50:34.677Z,20.44
2023-07-03T04:53:01.846Z,20.45
2023-07-03T04:55:30.243Z,20.50
2023-07-03T04:57:56.772Z,20.57
2023-07-03T05:00:23.118Z,20.65
2023-07-03T05:02:49.661Z,20.65
2023-07-03T05:05:16.327Z,20.41
2023-07-03T05:07:42.985Z,20.27
2023-07-03T05:10:09.872Z,20.08
2023-07-03T05:12:36.492Z,20.03
2023-07-03T05:15:04.055Z,19.95
2023-07-03T05:17:30.615Z,20.18
2023-07-03T05:19:57.134Z,20.29
2023-07-03T05:22:23.467Z,20.18
2023-07-03T05:24:50.530Z,20.06
2023-07-03T05:27:16.846Z,20.16
2023-07-03T05:29:43.167Z,20.00
2023-07-03T05:32:09.560Z,19.96
2023-07-03T05:34:38.983Z,19.85
2023-07-03T05:37:06.098Z,19.91
2023-07-03T05:39:33.513Z,20.03
2023-07-03T05:41:59.891Z,20.01
2023-07-03T05:44:26.429Z,19.86
2023-07-03T05:46:52.836Z,19.77
2023-07-03T05:49:19.208Z,19.62
2023-07-03T05:51:45.567Z,19.49
2023-07-03T05:54:11.958Z,19.52
2023-07-03T05:56:38.309Z,19.50
2023-07-03T05:59:04.638Z,19.54
2023-07-03T06:01:31.049Z,19.49
2023-07-03T06:03:57.556Z,19.60
2023-07-03T06:06:23.923Z,19.70
2023-07-03T06:08:50.725Z,19.81
2023-07-03T06:11:17.053Z,19.73
2023-07-03T06:13:43.419Z,19.88
2023-07-03T06:16:09.763Z,19.96
2023-07-03T06:18:36.109Z,19.90
2023-07-03T06:21:02.466Z,19.81
2023-07-03T06:23:28.836Z,19.67
2023-07-03T06:25:55.192Z,19.84
2023-07-03T06:28:21.533Z,19.68
2023-07-03T06:30:50.739Z,19.66
2023-07-03T06:33:18.160Z,19.64
2023-07-03T06:35:44.685Z,19.84
2023-07-03T06:38:11.060Z,19.92
2023-07-03T06:40:37.441Z,19.92
2023-07-03T06:43:03.814Z,19.92
2023-07-03T06:45:30.147Z,19.71
2023-07-03T06:47:56.706Z,19.85
2023-07-03T06:50:23.075Z,19.78
2023-07-03T06:52:49.472Z,19.91
2023-07-03T06:55:15.816Z,19.82
2023-07-03T06:57:42.147Z,19.98
2023-07-03T07:00:09.808Z,19.94
2023-07-03T07:02:36.228Z,19.84
2023-07-03T07:05:03.690Z,20.00
2023-07-03T07:07:30.510Z,19.98
2023-07-03T07:09:56.887Z,20.07
2023-07-03T07:12:23.229Z,20.00
2023-07-03T07:14:49.561Z,19.78
2023-07-03T07:17:15.907Z,19.78
2023-07-03T07:19:42.247Z,19.86
2023-07-03T07:22:08.638Z,19.87
2023-07-03T07:24:34.986Z,19.88
2023-07-03T07:27:01.617Z,19.95
2023-07-03T07:29:27.998Z,20.09
2023-07-03T07:31:55.367Z,20.35
2023-07-03T07:34:21.812Z,20.09
2023-07-03T07:36:48.148Z,20.21
2023-07-03T07:39:14.479Z,20.17
2023-07-03T07:41:40.847Z,20.39
2023-07-03T07:44:07.226Z,20.57
2023-07-03T07:46:33.875Z,20.82
2023-07-03T07:49:00.838Z,20.76
2023-07-03T07:51:27.243Z,21.01
2023-07-03T07:53:53.848Z,20.72
2023-07-03T07:56:20.656Z,20.72
2023-07-03T07:58:47.095Z,21.00
2023-07-03T08:01:15.577Z,21.10
2023-07-03T08:03:42.439Z,21.11
2023-07-03T08:06:09.227Z,21.09
2023-07-03T08:08:35.889Z,20.83
2023-07-03T08:11:02.809Z,20.82
2023-07-03T08:13:29.575Z,20.83
2023-07-03T08:15:56.125Z,20.87
2023-07-03T08:18:22.563Z,20.95
2023-07-03T08:20:49.288Z,20.57
2023-07-03T08:23:15.632Z,20.77
2023-07-03T08:25:42.471Z,20.54
2023-07-03T08:28:09.382Z,20.47
2023-07-03T08:30:35.724Z,20.64
2023-07-03T08:33:02.252Z,20.78
2023-07-03T08:37:59.740Z,20.49
2023-07-03T08:40:26.098Z,20.23
2023-07-03T08:42:56.401Z,20.31
2023-07-03T08:45:23.944Z,20.42
2023-07-03T08:47:51.031Z,20.64
2023-07-03T08:50:28.005Z,20.69
2023-07-03T08:52:59.146Z,21.03
2023-07-03T08:55:26.321Z,20.87
2023-07-03T08:57:52.677Z,20.96
2023-07-03T09:00:19.368Z,21.03
2023-07-03T09:02:52.008Z,20.99
2023-07-03T09:05:27.664Z,20.73
2023-07-03T09:07:55.014Z,20.84
2023-07-03T09:10:24.498Z,20.92
2023-07-03T09:12:52.051Z,21.16
2023-07-03T09:15:19.734Z,20.65
2023-07-03T09:17:46.139Z,20.62
2023-07-03T09:20:13.405Z,20.96
2023-07-03T09:22:51.855Z,21.13
2023-07-03T09:25:20.885Z,21.35
2023-07-03T09:27:49.045Z,21.04
2023-07-03T09:30:17.256Z,20.92
2023-07-03T09:32:43.772Z,20.62
2023-07-03T09:35:14.550Z,20.95
2023-07-03T09:37:41.874Z,21.10
2023-07-03T09:40:11.255Z,20.94
2023-07-03T09:42:37.688Z,20.82
2023-07-03T09:45:05.194Z,20.68
2023-07-03T09:47:32.042Z,20.87
2023-07-03T09:50:05.548Z,21.12
2023-07-03T09:52:31.979Z,21.52
2023-07-03T09:54:59.669Z,21.56
2023-07-03T09:57:27.110Z,21.26
2023-07-03T10:00:08.296Z,21.03
2023-07-03T10:07:40.605Z,21.98
2023-07-03T10:12:41.972Z,21.21
2023-07-03T10:15:09.723Z,21.80
2023-07-03T10:17:37.052Z,21.95
2023-07-03T10:20:04.864Z,21.76
2023-07-03T10:22:31.261Z,21.62
2023-07-03T10:25:01.251Z,21.53
2023-07-03T10:27:28.558Z,21.46
2023-07-03T10:29:54.952Z,21.41
2023-07-03T10:32:22.112Z,21.51
2023-07-03T10:34:54.527Z,21.82
2023-07-03T10:37:21.457Z,22.04
2023-07-03T10:39:54.925Z,22.02
2023-07-03T10:42:23.221Z,22.00
2023-07-03T10:44:51.075Z,21.99
2023-07-03T10:47:20.429Z,22.24
2023-07-03T10:49:47.311Z,22.12
2023-07-03T10:52:13.652Z,22.51
2023-07-03T10:54:58.863Z,22.51
2023-07-03T10:57:29.005Z,22.58
2023-07-03T10:59:55.874Z,22.43
2023-07-03T11:02:22.200Z,22.66
2023-07-03T11:04:58.088Z,22.66
2023-07-03T11:07:30.230Z,22.85
2023-07-03T11:09:58.430Z,22.40
2023-07-03T11:12:24.684Z,22.22
2023-07-03T11:14:54.202Z,22.13
2023-07-03T11:17:35.693Z,22.22
2023-07-03T11:20:06.643Z,22.51
2023-07-03T11:25:23.064Z,22.32
2023-07-03T11:27:55.289Z,22.13
2023-07-03T11:30:21.650Z,21.89
2023-07-03T11:32:48.070Z,21.65
2023-07-03T11:40:28.047Z,22.16
2023-07-03T11:45:39.139Z,22.15
2023-07-03T11:48:15.314Z,22.05
2023-07-03T11:50:41.687Z,22.31
2023-07-03T11:53:08.021Z,22.31
2023-07-03T11:55:35.631Z,22.43
2023-07-03T11:58:15.054Z,22.52
2023-07-03T12:00:47.215Z,22.66
2023-07-03T12:03:15.467Z,22.73
2023-07-03T12:05:44.974Z,22.90
2023-07-03T12:08:23.491Z,22.88
2023-07-03T12:10:56.954Z,22.85
2023-07-03T12:13:36.985Z,23.00
2023-07-03T12:16:04.880Z,23.09
2023-07-03T12:18:32.326Z,23.69
2023-07-03T12:21:02.619Z,23.79
2023-07-03T12:23:39.359Z,23.85
2023-07-03T12:26:06.677Z,24.07
2023-07-03T12:28:33.089Z,24.13
2023-07-03T12:31:28.871Z,23.71
2023-07-03T12:33:55.949Z,24.05
2023-07-03T12:36:26.496Z,23.96
2023-07-03T12:38:52.923Z,24.17
2023-07-03T12:41:23.285Z,24.47
2023-07-03T12:44:03.473Z,24.36
2023-07-03T12:46:35.424Z,24.17
2023-07-03T12:49:04.970Z,24.39
2023-07-03T12:51:35.458Z,24.37
2023-07-03T12:54:01.815Z,24.23
2023-07-03T12:56:30.260Z,24.32
2023-07-03T12:58:57.642Z,24.36
2023-07-03T13:01:26.049Z,24.21
2023-07-03T13:03:52.569Z,24.55
2023-07-03T13:06:23.778Z,24.58
2023-07-03T13:08:50.241Z,24.39
2023-07-03T13:11:16.631Z,24.77
2023-07-03T13:13:43.036Z,24.99
2023-07-03T13:16:16.217Z,25.21
2023-07-03T13:18:57.963Z,24.61
2023-07-03T13:21:24.323Z,24.61
2023-07-03T13:23:50.673Z,24.41
2023-07-03T13:26:21.488Z,24.56
2023-07-03T13:28:56.759Z,24.58
2023-07-03T13:31:24.843Z,24.30
2023-07-03T13:34:06.437Z,24.37
2023-07-03T13:36:34.290Z,24.44
2023-07-03T13:39:27.311Z,24.56
2023-07-03T13:41:55.701Z,24.83
2023-07-03T13:44:23.794Z,24.86
2023-07-03T13:46:51.179Z,24.86
2023-07-03T13:49:17.907Z,24.86
2023-07-03T13:51:47.159Z,24.66
2023-07-03T13:54:36.629Z,25.12
2023-07-03T13:57:04.064Z,25.12
2023-07-03T13:59:30.498Z,25.05
2023-07-03T14:01:57.102Z,25.09
2023-07-03T14:04:23.635Z,25.24
2023-07-03T14:06:50.313Z,25.24
2023-07-03T14:09:19.714Z,25.36
2023-07-03T14:11:46.054Z,25.67
2023-07-03T14:14:12.474Z,25.52
2023-07-03T14:16:38.904Z,25.69
2023-07-03T14:19:07.520Z,25.91
2023-07-03T14:21:34.211Z,26.19
2023-07-03T14:24:00.564Z,25.90
2023-07-03T14:26:27.035Z,26.04
2023-07-03T14:28:53.420Z,25.96
2023-07-03T14:31:19.911Z,26.09
2023-07-03T14:33:46.415Z,26.37
2023-07-03T14:36:15.683Z,26.68
2023-07-03T14:38:50.053Z,26.85
2023-07-03T14:41:16.514Z,26.67
2023-07-03T14:43:42.934Z,27.01
2023-07-03T14:46:09.401Z,27.34
2023-07-03T14:48:36.139Z,27.50
2023-07-03T14:51:02.828Z,27.43
2023-07-03T14:53:31.618Z,27.69
2023-07-03T14:55:58.234Z,27.98
2023-07-03T14:58:24.758Z,27.93
2023-07-03T15:01:01.552Z,28.11
2023-07-03T15:09:41.091Z,28.28
2023-07-03T15:12:09.474Z,28.81
2023-07-03T15:14:36.631Z,28.87
2023-07-03T15:17:05.862Z,29.11
2023-07-03T15:19:44.092Z,28.98
2023-07-03T15:22:12.757Z,29.05
2023-07-03T15:24:39.309Z,28.79
2023-07-03T15:27:06.903Z,28.97
2023-07-03T15:29:34.553Z,28.61
2023-07-03T15:32:00.950Z,29.23
2023-07-03T15:34:28.661Z,28.97
2023-07-03T15:36:55.021Z,29.29
2023-07-03T15:39:21.481Z,29.37
2023-07-03T15:41:48.708Z,29.00
2023-07-03T15:44:15.516Z,29.22
2023-07-03T15:46:41.975Z,28.27
2023-07-03T15:49:08.382Z,28.59
2023-07-03T15:51:34.705Z,28.15
2023-07-03T15:54:01.268Z,29.06
2023-07-03T15:56:27.662Z,29.22
2023-07-03T15:58:56.377Z,29.25
2023-07-03T16:01:23.260Z,28.47
2023-07-03T16:03:52.249Z,28.82
2023-07-03T16:06:18.969Z,29.11
2023-07-03T16:08:45.451Z,28.76
2023-07-03T16:11:15.349Z,28.13
2023-07-03T16:13:41.783Z,28.39
2023-07-03T16:16:14.993Z,27.74
2023-07-03T16:18:41.420Z,27.56
2023-07-03T16:21:10.170Z,27.77
2023-07-03T16:23:36.597Z,27.83
2023-07-03T16:26:05.808Z,27.77
2023-07-03T16:28:33.823Z,27.91
2023-07-03T16:31:03.364Z,27.67
2023-07-03T16:33:29.812Z,27.71
2023-07-03T16:35:56.855Z,27.93
2023-07-03T16:38:23.205Z,27.79
2023-07-03T16:40:49.551Z,27.85
2023-07-03T16:43:15.944Z,27.49
2023-07-03T16:45:42.299Z,27.35
2023-07-03T16:48:08.709Z,27.31
2023-07-03T16:50:35.089Z,27.45
2023-07-03T16:53:01.422Z,27.07
2023-07-03T16:55:27.744Z,26.97
2023-07-03T16:57:54.096Z,26.91
2023-07-03T17:00:20.448Z,27.12
2023-07-03T17:02:46.851Z,26.84
2023-07-03T17:05:14.198Z,27.03
2023-07-03T17:07:41.968Z,26.52
2023-07-03T17:10:08.539Z,26.66
2023-07-03T17:12:34.895Z,26.35
2023-07-03T17:15:01.226Z,26.42
2023-07-03T17:17:27.635Z,25.89
2023-07-03T17:19:54.135Z,25.61
2023-07-03T17:22:22.484Z,25.54
2023-07-03T17:24:50.726Z,25.29
2023-07-03T17:27:17.067Z,25.25
2023-07-03T17:29:43.789Z,25.23
2023-07-03T17:32:11.232Z,25.34
2023-07-03T17:34:37.593Z,25.58
2023-07-03T17:37:04.017Z,25.07
2023-07-03T17:39:30.364Z,24.76
2023-07-03T17:41:56.701Z,24.39
2023-07-03T17:44:23.066Z,24.08
2023-07-03T17:46:49.434Z,24.01
2023-07-03T17:49:15.799Z,23.78
2023-07-03T17:51:42.169Z,23.88
2023-07-03T17:54:08.884Z,24.32
2023-07-03T17:56:35.266Z,23.86
2023-07-03T17:59:01.646Z,23.77
2023-07-03T18:01:28.045Z,23.77
2023-07-03T18:03:54.536Z,23.48
2023-07-03T18:06:20.936Z,23.41
2023-07-03T18:08:47.310Z,23.63
2023-07-03T18:11:15.479Z,23.62
2023-07-03T18:13:42.985Z,23.83
2023-07-03T18:16:09.423Z,23.71
2023-07-03T18:18:35.796Z,23.92
2023-07-03T18:21:02.145Z,24.24
2023-07-03T18:23:28.578Z,24.27
2023-07-03T18:25:56.044Z,24.28
2023-07-03T18:28:22.437Z,24.02
2023-07-03T18:31:04.281Z,24.07
2023-07-03T18:33:32.067Z,23.92
2023-07-03T18:35:59.706Z,23.39
2023-07-03T18:38:26.108Z,23.35
2023-07-03T18:40:52.721Z,23.44
2023-07-03T18:43:19.076Z,23.52
2023-07-03T18:45:48.823Z,23.60
2023-07-03T18:48:15.340Z,23.51
2023-07-03T18:50:41.750Z,23.39
2023-07-03T18:53:08.086Z,23.35
2023-07-03T18:55:34.504Z,23.27
2023-07-03T18:58:00.881Z,23.34
2023-07-03T19:00:27.304Z,23.44
2023-07-03T19:02:53.880Z,23.45
2023-07-03T19:05:20.308Z,23.54
2023-07-03T19:07:46.651Z,23.28
2023-07-03T19:10:18.425Z,23.15
2023-07-03T19:12:45.484Z,22.94
2023-07-03T19:15:11.837Z,22.78
2023-07-03T19:17:38.211Z,22.58
2023-07-03T19:20:04.784Z,22.44
2023-07-03T19:22:31.274Z,22.49
2023-07-03T19:24:57.600Z,22.74
2023-07-03T19:27:23.933Z,22.94
2023-07-03T19:29:50.299Z,22.99
2023-07-03T19:32:16.852Z,23.25
2023-07-03T19:34:45.933Z,23.40
2023-07-03T19:37:12.375Z,23.50
2023-07-03T19:39:38.724Z,23.56
2023-07-03T19:42:05.149Z,23.52
2023-07-03T19:44:31.564Z,23.55
2023-07-03T19:46:57.909Z,23.55
2023-07-03T19:49:24.314Z,23.47
2023-07-03T19:51:50.703Z,23.35
2023-07-03T19:54:17.035Z,23.31
2023-07-03T19:56:43.370Z,22.84
2023-07-03T19:59:10.824Z,22.53
2023-07-03T20:01:37.583Z,22.52
2023-07-03T20:04:04.590Z,22.18
2023-07-03T20:06:30.992Z,21.92
2023-07-03T20:08:57.433Z,21.76
2023-07-03T20:11:25.795Z,21.71
2023-07-03T20:13:52.465Z,21.72
2023-07-03T20:16:19.436Z,22.00
2023-07-03T20:18:52.345Z,22.27
2023-07-03T20:21:18.870Z,22.30
2023-07-03T20:23:48.422Z,22.52
2023-07-03T20:26:15.055Z,22.62
2023-07-03T20:28:41.390Z,22.51
2023-07-03T20:31:08.235Z,22.05
2023-07-03T20:33:34.617Z,21.63
2023-07-03T20:36:02.396Z,21.29
2023-07-03T20:38:29.068Z,21.00
2023-07-03T20:40:56.266Z,21.07
2023-07-03T20:43:22.599Z,21.47
2023-07-03T20:45:56.731Z,21.75
2023-07-03T20:48:26.335Z,22.04
2023-07-03T20:50:55.273Z,21.55
2023-07-03T20:53:30.298Z,21.06
2023-07-03T20:56:08.862Z,20.78
2023-07-03T20:58:36.443Z,20.62
2023-07-03T21:01:15.704Z,20.55
2023-07-03T21:03:45.058Z,20.62
2023-07-03T21:06:12.004Z,20.56
2023-07-03T21:08:41.317Z,20.61
2023-07-03T21:11:12.172Z,20.66
2023-07-03T21:13:39.413Z,21.01
2023-07-03T21:16:06.279Z,21.38
2023-07-03T21:18:32.611Z,21.17
2023-07-03T21:20:59.116Z,20.87
2023-07-03T21:23:25.446Z,20.81
2023-07-03T21:25:52.005Z,21.14
2023-07-03T21:28:18.513Z,21.11
2023-07-03T21:30:44.860Z,21.08
2023-07-03T21:33:11.249Z,21.40
2023-07-03T21:35:37.595Z,21.51
2023-07-03T21:38:03.905Z,21.40
2023-07-03T21:40:30.320Z,21.53
2023-07-03T21:42:56.645Z,20.91
2023-07-03T21:45:22.984Z,20.57
2023-07-03T21:47:49.640Z,20.63
2023-07-03T21:50:16.041Z,20.96
2023-07-03T21:52:46.562Z,21.09
2023-07-03T21:55:12.929Z,20.70
2023-07-03T21:57:39.315Z,20.71
2023-07-03T22:00:05.895Z,21.02
2023-07-03T22:02:35.054Z,20.63
2023-07-03T22:05:01.392Z,20.53
2023-07-03T22:07:27.789Z,20.44
2023-07-03T22:09:54.208Z,20.14
2023-07-03T22:12:20.548Z,20.00
2023-07-03T22:14:46.875Z,19.92
2023-07-03T22:17:13.247Z,19.86
2023-07-03T22:19:40.172Z,19.64
2023-07-03T22:22:06.702Z,19.42
2023-07-03T22:24:33.024Z,19.35
2023-07-03T22:26:59.360Z,19.29
2023-07-03T22:29:25.692Z,19.44
2023-07-03T22:31:52.082Z,19.81
2023-07-03T22:34:18.960Z,19.86
2023-07-03T22:36:46.716Z,19.73
2023-07-03T22:39:13.039Z,19.50
2023-07-03T22:41:39.378Z,19.28
2023-07-03T22:44:05.719Z,19.07
2023-07-03T22:46:32.146Z,19.01
2023-07-03T22:48:59.888Z,18.99
2023-07-03T22:51:27.653Z,18.88
2023-07-03T22:53:53.972Z,18.88
2023-07-03T22:56:20.598Z,18.71
2023-07-03T22:58:46.929Z,18.65
2023-07-03T23:01:13.265Z,18.83
2023-07-03T23:03:39.891Z,19.34
2023-07-03T23:06:07.107Z,19.66
2023-07-03T23:08:33.608Z,19.27
2023-07-03T23:10:59.933Z,19.12
2023-07-03T23:13:26.305Z,19.19
2023-07-03T23:16:00.007Z,19.12
2023-07-03T23:18:29.003Z,18.97
2023-07-03T23:20:56.989Z,18.95
2023-07-03T23:23:27.814Z,19.09
2023-07-03T23:25:54.750Z,19.02
2023-07-03T23:28:21.193Z,18.96
2023-07-03T23:30:56.979Z,18.94
2023-07-03T23:33:23.322Z,18.79
2023-07-03T23:35:51.660Z,18.70
2023-07-03T23:38:18.040Z,18.48
2023-07-03T23:40:44.991Z,18.39
2023-07-03T23:43:11.567Z,18.32
2023-07-03T23:45:37.899Z,18.26
2023-07-03T23:48:04.727Z,18.25
2023-07-03T23:50:31.280Z,18.27
2023-07-03T23:52:58.039Z,18.30
2023-07-03T23:55:24.437Z,18.27
2023-07-03T23:57:51.212Z,18.23
